Time;durP1;ratioP1;P1;durP2;ratioP2;P2;SDS_P1;SDS_P2;PMS_P1;PMS_P2;Temp;Humidity;BMP_temperature;BMP_pressure;BME280_temperature;BME280_humidity;BME280_pressure;Samples;Min_cycle;Max_cycle;Signal;HPM_P1;HPM_P2
2023/08/19 00:00:51;;;;;;;11.15;6.75;;;;;;;21.83;89.44;101230.31;2059763;28;20900;-72
2023/08/19 00:01:54;;;;;;;10.73;7.15;;;;;;;21.83;89.56;101228.38;2054406;28;20891;-72
2023/08/19 00:02:56;;;;;;;11.73;6.60;;;;;;;21.83;89.60;101233.84;2054563;28;20031;-72
2023/08/19 00:04:06;;;;;;;9.70;6.60;;;;;;;21.84;89.52;101229.16;2054834;28;20027;-72
2023/08/19 00:05:09;;;;;;;10.73;6.80;;;;;;;21.84;89.45;101231.91;2058337;28;20794;-72
2023/08/19 00:06:30;;;;;;;15.20;7.03;;;;;;;21.84;89.70;101229.97;2049090;28;20044;-72
2023/08/19 00:07:32;;;;;;;9.20;6.35;;;;;;;21.80;89.48;101228.25;2043041;28;20076;-72
2023/08/19 00:08:35;;;;;;;12.32;6.80;;;;;;;21.83;89.63;101222.91;2048470;28;21044;-72
2023/08/19 00:09:40;;;;;;;11.13;6.85;;;;;;;21.79;89.59;101227.47;2054122;28;20076;-72
2023/08/19 00:10:42;;;;;;;10.82;6.97;;;;;;;21.71;89.80;101231.09;2051868;28;20042;-71
2023/08/19 00:11:47;;;;;;;13.02;6.95;;;;;;;21.66;90.05;101225.84;2054152;28;20142;-72
2023/08/19 00:12:49;;;;;;;11.00;6.93;;;;;;;21.66;90.26;101228.56;2047827;28;20076;-72
2023/08/19 00:13:51;;;;;;;14.80;8.07;;;;;;;21.64;90.41;101230.84;2046549;28;20140;-72
2023/08/19 00:14:55;;;;;;;10.77;7.05;;;;;;;21.62;90.47;101228.41;2052124;28;20028;-71
2023/08/19 00:15:57;;;;;;;11.85;6.93;;;;;;;21.61;90.61;101224.09;2052948;28;20114;-72
2023/08/19 00:17:00;;;;;;;12.15;7.38;;;;;;;21.60;90.62;101229.91;2059771;28;20777;-71
2023/08/19 00:18:04;;;;;;;11.98;7.40;;;;;;;21.57;90.83;101228.66;2061110;28;20022;-71
2023/08/19 00:19:08;;;;;;;12.45;7.60;;;;;;;21.54;91.08;101225.78;2067579;28;20031;-72
2023/08/19 00:20:13;;;;;;;12.70;6.88;;;;;;;21.51;91.17;101228.06;2065302;28;20047;-72
2023/08/19 00:21:14;;;;;;;10.52;7.30;;;;;;;21.54;91.29;101225.78;2063177;28;20032;-72
2023/08/19 00:22:18;;;;;;;11.82;7.32;;;;;;;21.55;91.30;101227.38;2060650;28;20046;-72
2023/08/19 00:23:25;;;;;;;12.57;7.40;;;;;;;21.49;91.38;101219.38;2060875;28;20046;-72
2023/08/19 00:24:30;;;;;;;11.00;7.50;;;;;;;21.48;91.61;101223.25;2052059;28;20052;-71
2023/08/19 00:25:33;;;;;;;12.45;7.63;;;;;;;21.47;91.52;101227.13;2046518;28;20044;-73
2023/08/19 00:26:37;;;;;;;11.93;7.78;;;;;;;21.45;91.74;101212.97;2038183;28;20033;-73
2023/08/19 00:27:42;;;;;;;14.57;7.88;;;;;;;21.43;91.71;101220.72;2045600;28;20035;-73
2023/08/19 00:28:46;;;;;;;9.95;7.35;;;;;;;21.45;91.78;101220.41;2045963;28;20036;-73
2023/08/19 00:29:48;;;;;;;13.15;8.00;;;;;;;21.46;91.76;101216.50;2044492;28;20882;-73
2023/08/19 00:30:50;;;;;;;14.10;7.43;;;;;;;21.43;91.91;101214.44;2052202;28;20079;-73
2023/08/19 00:31:51;;;;;;;12.80;7.93;;;;;;;21.41;91.86;101216.75;2070189;28;20022;-73
2023/08/19 00:32:53;;;;;;;13.35;7.80;;;;;;;21.40;92.19;101212.38;2044440;28;20044;-73
2023/08/19 00:33:54;;;;;;;12.27;7.82;;;;;;;21.36;92.11;101217.72;2045661;28;20146;-73
2023/08/19 00:34:58;;;;;;;14.50;7.88;;;;;;;21.35;92.42;101216.13;2051960;28;20031;-73
2023/08/19 00:36:03;;;;;;;14.70;8.25;;;;;;;21.35;92.61;101216.13;2062639;28;20806;-71
2023/08/19 00:37:07;;;;;;;10.70;7.53;;;;;;;21.35;92.63;101218.03;2065877;28;20035;-73
2023/08/19 00:38:09;;;;;;;12.82;8.23;;;;;;;21.36;92.24;101217.72;2066024;28;20082;-73
2023/08/19 00:39:11;;;;;;;10.68;8.40;;;;;;;21.35;92.62;101218.88;2064943;28;20034;-73
2023/08/19 00:40:15;;;;;;;12.80;7.28;;;;;;;21.25;93.08;101213.78;2058129;28;20028;-72
2023/08/19 00:41:16;;;;;;;11.48;7.65;;;;;;;21.21;93.40;101215.56;2058480;28;20063;-71
2023/08/19 00:42:21;;;;;;;10.63;7.93;;;;;;;21.21;93.56;101213.63;2051049;28;20020;-72
2023/08/19 00:43:27;;;;;;;11.95;7.50;;;;;;;21.24;93.67;101217.63;2047406;28;20044;-72
2023/08/19 00:44:33;;;;;;;12.68;7.28;;;;;;;21.26;93.53;101223.59;2041959;28;20943;-72
2023/08/19 00:45:38;;;;;;;13.55;8.38;;;;;;;21.27;93.63;101216.97;2058856;28;20027;-72
2023/08/19 00:46:44;;;;;;;10.60;7.07;;;;;;;21.26;93.64;101215.38;2058152;28;20079;-72
2023/08/19 00:47:46;;;;;;;11.93;7.93;;;;;;;21.23;93.65;101205.91;2058497;28;20039;-72
2023/08/19 00:48:50;;;;;;;12.52;8.25;;;;;;;21.24;93.82;101212.97;2050077;28;20222;-73
2023/08/19 00:49:53;;;;;;;12.38;7.70;;;;;;;21.25;93.80;101202.84;2042497;28;20040;-72
2023/08/19 00:51:02;;;;;;;11.23;7.68;;;;;;;21.28;93.70;101210.38;2050947;28;20020;-73
2023/08/19 00:52:05;;;;;;;11.40;7.82;;;;;;;21.28;93.57;101213.13;2057304;28;20842;-73
2023/08/19 00:53:12;;;;;;;13.95;8.38;;;;;;;21.22;93.71;101209.00;2040362;28;20043;-73
2023/08/19 00:54:14;;;;;;;15.43;8.10;;;;;;;21.20;94.09;101205.78;2042952;28;20146;-73
2023/08/19 00:55:17;;;;;;;12.40;7.05;;;;;;;21.20;94.01;101212.03;2050538;28;20886;-73
2023/08/19 00:56:21;;;;;;;15.27;7.75;;;;;;;21.20;94.07;101211.25;2058207;28;20141;-73
2023/08/19 00:57:24;;;;;;;11.25;7.63;;;;;;;21.18;94.09;101211.56;2050737;28;20126;-73
2023/08/19 00:58:29;;;;;;;11.65;7.40;;;;;;;21.21;94.32;101201.91;2050484;28;20028;-72
2023/08/19 00:59:33;;;;;;;10.15;7.20;;;;;;;21.17;94.28;101211.91;2059059;28;20933;-73
2023/08/19 01:00:43;;;;;;;11.23;7.45;;;;;;;21.14;94.16;101196.97;2057969;28;20043;-73
2023/08/19 01:01:45;;;;;;;12.65;7.45;;;;;;;21.20;94.34;101211.25;2059735;28;20070;-73
2023/08/19 01:02:47;;;;;;;9.93;6.70;;;;;;;21.17;94.44;101201.78;2049986;28;20032;-73
2023/08/19 01:03:51;;;;;;;10.68;7.70;;;;;;;21.20;94.33;101209.31;2050727;28;20736;-73
2023/08/19 01:04:56;;;;;;;16.38;7.97;;;;;;;21.21;94.32;101199.16;2066111;28;20081;-73
2023/08/19 01:06:20;;;;;;;11.43;7.43;;;;;;;21.15;94.39;101203.22;2050269;28;20863;-73
2023/08/19 01:07:55;;;;;;;10.98;7.75;;;;;;;21.14;94.49;101193.44;2040437;28;20107;-73
2023/08/19 01:09:24;;;;;;;9.65;6.70;;;;;;;21.11;94.69;101189.44;2022085;28;20115;-73
2023/08/19 01:11:02;;;;;;;8.70;6.53;;;;;;;21.16;94.85;101194.72;2038048;29;21071;-73
2023/08/19 01:12:16;;;;;;;;;;;;;;;21.15;94.80;101190.34;2036427;29;20103;-73
2023/08/19 01:13:25;;;;;;;12.77;7.45;;;;;;;21.12;94.80;101182.81;2043873;28;19911;-73
2023/08/19 01:14:37;;;;;;;12.05;6.63;;;;;;;21.15;94.83;101190.34;2035236;29;20086;-73
2023/08/19 01:16:02;;;;;;;10.93;7.20;;;;;;;21.13;94.86;101186.38;2037537;28;20040;-73
2023/08/19 01:17:06;;;;;;;14.40;7.32;;;;;;;21.16;94.87;101191.19;2037099;29;20952;-73
2023/08/19 01:18:08;;;;;;;12.13;7.03;;;;;;;21.17;94.88;101196.31;2034973;28;20036;-73
2023/08/19 01:19:22;;;;;;;11.88;7.07;;;;;;;21.20;94.90;101184.69;2050307;28;20032;-72
2023/08/19 01:20:31;;;;;;;13.40;7.50;;;;;;;21.21;94.87;101185.50;2042055;29;20123;-72
2023/08/19 01:21:34;;;;;;;13.20;7.18;;;;;;;21.18;94.84;101183.44;2043566;28;20117;-72
2023/08/19 01:22:57;;;;;;;10.85;6.78;;;;;;;21.18;94.98;101191.63;2052774;28;20055;-72
2023/08/19 01:23:59;;;;;;;12.18;7.55;;;;;;;21.15;95.22;101178.63;2061473;28;20035;-72
2023/08/19 01:25:05;;;;;;;10.65;7.47;;;;;;;21.14;95.28;101185.25;2066168;28;20038;-73
2023/08/19 01:26:12;;;;;;;11.02;7.63;;;;;;;21.13;95.33;101184.44;2057719;28;20768;-73
2023/08/19 01:27:25;;;;;;;13.43;7.53;;;;;;;21.10;95.47;101179.63;2042735;28;20040;-72
2023/08/19 01:28:30;;;;;;;15.07;7.63;;;;;;;21.12;95.46;101171.09;2060473;28;20109;-72
2023/08/19 01:29:34;;;;;;;10.70;7.32;;;;;;;21.14;95.56;101182.50;2057963;28;20070;-72
2023/08/19 01:30:39;;;;;;;14.75;7.30;;;;;;;21.15;95.53;101171.22;2058497;28;20020;-72
2023/08/19 01:31:41;;;;;;;10.27;6.97;;;;;;;21.17;95.60;101168.16;2066034;28;20034;-73
2023/08/19 01:32:44;;;;;;;12.52;7.43;;;;;;;21.15;95.56;101171.22;2057891;28;20035;-73
2023/08/19 01:33:46;;;;;;;10.82;7.28;;;;;;;21.14;95.76;101166.88;2058086;28;20786;-73
2023/08/19 01:34:49;;;;;;;10.55;7.25;;;;;;;21.14;95.96;101168.81;2057867;28;20194;-73
2023/08/19 01:36:05;;;;;;;11.80;7.40;;;;;;;21.15;95.87;101164.94;2057970;28;20928;-73
2023/08/19 01:37:13;;;;;;;13.05;7.60;;;;;;;21.14;95.87;101168.81;2060084;28;20035;-74
2023/08/19 01:38:27;;;;;;;12.00;7.43;;;;;;;21.12;95.86;101174.63;2057787;28;20791;-73
2023/08/19 01:39:30;;;;;;;17.33;7.78;;;;;;;21.09;96.19;101158.91;2058021;28;20058;-73
2023/08/19 01:40:32;;;;;;;13.02;7.43;;;;;;;21.04;96.41;101170.84;2049575;28;20861;-73
2023/08/19 01:41:37;;;;;;;9.48;6.90;;;;;;;21.05;96.55;101177.91;2050411;28;20035;-73
2023/08/19 01:42:41;;;;;;;12.38;7.60;;;;;;;21.07;96.68;101180.31;2042137;28;20043;-73
2023/08/19 01:43:44;;;;;;;14.70;7.88;;;;;;;21.10;96.50;101176.13;2050883;28;20891;-73
2023/08/19 01:44:46;;;;;;;12.00;6.60;;;;;;;21.09;96.62;101169.03;2058125;28;20032;-73
2023/08/19 01:45:47;;;;;;;11.05;6.95;;;;;;;21.09;96.58;101174.50;2058522;28;20838;-73
2023/08/19 01:46:51;;;;;;;13.40;7.35;;;;;;;21.11;96.65;101180.44;2057634;28;20019;-73
2023/08/19 01:47:53;;;;;;;10.98;7.03;;;;;;;21.11;96.63;101192.16;2066045;28;20023;-73
2023/08/19 01:48:54;;;;;;;10.55;7.18;;;;;;;21.11;96.58;101189.44;2065507;28;20105;-73
2023/08/19 01:49:58;;;;;;;11.07;6.93;;;;;;;21.14;96.58;101190.69;2065974;28;20787;-73
2023/08/19 01:51:03;;;;;;;10.20;6.72;;;;;;;21.16;96.45;101193.91;2065145;28;20075;-73
2023/08/19 01:52:06;;;;;;;9.68;6.45;;;;;;;21.18;96.15;101188.91;2042716;28;20040;-73
2023/08/19 01:53:10;;;;;;;9.45;6.43;;;;;;;21.20;96.10;101192.09;2034841;28;20832;-73
2023/08/19 01:54:18;;;;;;;12.20;6.97;;;;;;;21.22;96.06;101187.09;2051574;28;20146;-72
2023/08/19 01:55:22;;;;;;;10.52;6.30;;;;;;;21.22;95.78;101190.63;2057810;28;20026;-73
2023/08/19 01:56:26;;;;;;;9.30;6.47;;;;;;;21.23;95.56;101189.50;2065936;28;20034;-72
2023/08/19 01:57:30;;;;;;;10.70;5.70;;;;;;;21.27;95.41;101206.03;2057834;28;20024;-71
2023/08/19 01:58:34;;;;;;;10.75;6.35;;;;;;;21.29;95.38;101193.63;2058456;28;20023;-70
2023/08/19 01:59:37;;;;;;;11.68;7.10;;;;;;;21.29;95.21;101199.09;2065037;28;21236;-71
2023/08/19 02:00:43;;;;;;;9.57;6.38;;;;;;;21.32;95.25;101196.84;2034479;29;20031;-71
2023/08/19 02:01:45;;;;;;;10.82;7.00;;;;;;;21.30;95.08;101183.47;2035728;28;20193;-71
2023/08/19 02:02:52;;;;;;;10.85;6.50;;;;;;;21.34;94.97;101192.59;2050072;28;20036;-71
2023/08/19 02:03:53;;;;;;;11.40;6.60;;;;;;;21.36;94.88;101198.56;2050528;28;20129;-71
2023/08/19 02:04:55;;;;;;;14.35;7.05;;;;;;;21.36;94.67;101204.06;2050004;28;20118;-71
2023/08/19 02:05:57;;;;;;;10.05;6.22;;;;;;;21.38;94.51;101201.78;2041813;28;20048;-71
2023/08/19 02:06:59;;;;;;;11.23;6.65;;;;;;;21.39;94.75;101191.66;2042022;28;20832;-71
2023/08/19 02:08:01;;;;;;;11.85;6.70;;;;;;;21.39;94.41;101186.97;2054057;28;20024;-71
2023/08/19 02:09:03;;;;;;;15.43;6.95;;;;;;;21.40;94.41;101185.81;2049723;28;20067;-71
2023/08/19 02:10:13;;;;;;;12.02;6.20;;;;;;;21.43;94.43;101192.56;2051547;28;20961;-72
2023/08/19 02:11:19;;;;;;;12.33;7.37;;;;;;;21.41;94.64;101184.72;2056786;28;20035;-71
2023/08/19 02:12:23;;;;;;;13.57;7.25;;;;;;;21.42;94.58;101183.56;2050267;28;20251;-71
2023/08/19 02:13:25;;;;;;;10.18;6.65;;;;;;;21.42;94.69;101186.28;2057815;28;20031;-71
2023/08/19 02:14:29;;;;;;;12.30;7.57;;;;;;;21.43;94.86;101185.16;2050108;28;20052;-71
2023/08/19 02:15:30;;;;;;;15.82;7.95;;;;;;;21.43;94.67;101184.34;2041860;28;20036;-71
2023/08/19 02:16:34;;;;;;;22.73;7.32;;;;;;;21.43;94.73;101185.16;2049938;28;20037;-73
2023/08/19 02:17:39;;;;;;;12.85;6.80;;;;;;;21.43;94.78;101182.41;2065900;28;20051;-73
2023/08/19 02:18:42;;;;;;;16.83;8.50;;;;;;;21.44;94.92;101184.03;2049838;28;20035;-73
2023/08/19 02:19:44;;;;;;;13.15;8.18;;;;;;;21.44;94.82;101178.56;2041860;28;20083;-73
2023/08/19 02:20:49;;;;;;;15.82;7.07;;;;;;;21.45;94.93;101174.69;2049978;28;20095;-73
2023/08/19 02:21:53;;;;;;;14.77;7.03;;;;;;;21.41;94.92;101178.44;2057801;28;20790;-73
2023/08/19 02:22:59;;;;;;;13.10;7.57;;;;;;;21.40;95.05;101177.63;2058120;28;20039;-73
2023/08/19 02:24:03;;;;;;;13.82;7.22;;;;;;;21.41;95.27;101176.50;2057932;28;20890;-73
2023/08/19 02:25:10;;;;;;;14.48;8.02;;;;;;;21.41;95.16;101168.28;2042378;28;20774;-73
2023/08/19 02:26:12;;;;;;;12.75;7.80;;;;;;;21.38;95.36;101174.44;2051271;28;20098;-73
2023/08/19 02:27:14;;;;;;;13.43;7.95;;;;;;;21.30;95.57;101167.88;2049629;28;20969;-71
2023/08/19 02:28:16;;;;;;;11.00;7.70;;;;;;;21.29;95.91;101174.47;2041980;28;20042;-71
2023/08/19 02:29:17;;;;;;;14.75;7.90;;;;;;;21.28;96.29;101174.81;2041847;28;20120;-73
2023/08/19 02:30:20;;;;;;;17.67;8.32;;;;;;;21.28;96.45;101174.81;2049708;28;20036;-73
2023/08/19 02:31:22;;;;;;;15.65;7.10;;;;;;;21.30;96.60;101178.00;2057441;28;20142;-73
2023/08/19 02:32:29;;;;;;;10.57;7.70;;;;;;;21.31;96.54;101185.06;2057975;28;20033;-73
2023/08/19 02:33:32;;;;;;;11.43;7.55;;;;;;;21.33;96.67;101182.00;2057830;28;20038;-73
2023/08/19 02:34:37;;;;;;;12.10;7.28;;;;;;;21.33;96.78;101182.81;2050140;28;20867;-73
2023/08/19 02:35:43;;;;;;;14.48;7.05;;;;;;;21.34;96.84;101181.66;2050158;28;20835;-71
2023/08/19 02:36:45;;;;;;;14.82;8.25;;;;;;;21.33;96.82;101182.00;2050443;28;20810;-71
2023/08/19 02:37:47;;;;;;;17.45;8.30;;;;;;;21.30;96.93;101178.81;2057651;28;20150;-71
2023/08/19 02:38:52;;;;;;;18.27;8.13;;;;;;;21.29;96.92;101179.94;2057556;28;20843;-71
2023/08/19 02:39:58;;;;;;;14.70;7.47;;;;;;;21.29;96.96;101181.88;2050074;28;20134;-71
2023/08/19 02:40:59;;;;;;;13.98;8.20;;;;;;;21.27;97.23;101178.69;2049871;28;20154;-71
2023/08/19 02:42:01;;;;;;;13.38;7.45;;;;;;;21.26;97.29;101177.88;2049438;28;20043;-71
2023/08/19 02:43:02;;;;;;;17.52;8.35;;;;;;;21.27;97.37;101181.41;2057628;28;20047;-71
2023/08/19 02:44:07;;;;;;;15.07;7.68;;;;;;;21.27;97.42;101178.69;2049567;28;20062;-71
2023/08/19 02:45:11;;;;;;;14.50;7.35;;;;;;;21.30;97.45;101178.81;2049807;28;20050;-71
2023/08/19 02:46:14;;;;;;;21.65;7.72;;;;;;;21.32;97.39;101185.91;2058076;28;20020;-71
2023/08/19 02:47:15;;;;;;;10.68;6.97;;;;;;;21.31;97.31;101176.88;2056979;28;20081;-71
2023/08/19 02:48:17;;;;;;;13.68;7.53;;;;;;;21.33;97.25;101177.34;2042035;28;20779;-71
2023/08/19 02:49:26;;;;;;;12.50;7.40;;;;;;;21.37;97.16;101183.75;2057586;28;20027;-71
2023/08/19 02:50:29;;;;;;;14.43;7.35;;;;;;;21.36;97.39;101182.16;2065867;28;20015;-71
2023/08/19 02:51:33;;;;;;;15.38;7.43;;;;;;;21.38;97.00;101190.06;2057744;28;20090;-71
2023/08/19 02:52:34;;;;;;;11.15;6.40;;;;;;;21.41;97.02;101189.38;2034036;29;20765;-71
2023/08/19 02:53:36;;;;;;;10.07;6.80;;;;;;;21.42;97.16;101190.97;2042066;28;20024;-70
2023/08/19 02:54:41;;;;;;;14.25;7.68;;;;;;;21.41;96.92;101179.22;2065734;28;20768;-70
2023/08/19 02:55:43;;;;;;;15.88;8.15;;;;;;;21.41;97.01;101184.72;2057468;28;20055;-71
2023/08/19 02:56:45;;;;;;;14.10;7.82;;;;;;;21.39;97.04;101181.50;2041413;28;20040;-71
2023/08/19 02:57:47;;;;;;;12.95;7.95;;;;;;;21.41;96.87;101181.97;2033666;28;20131;-71
2023/08/19 02:58:51;;;;;;;15.85;8.13;;;;;;;21.37;97.02;101178.28;2041756;28;20032;-70
2023/08/19 02:59:55;;;;;;;19.50;7.72;;;;;;;21.41;96.83;101178.44;2049596;28;20158;-71
2023/08/19 03:01:00;;;;;;;17.63;8.13;;;;;;;21.37;97.13;101177.50;2042452;28;20040;-71
2023/08/19 03:02:05;;;;;;;12.27;7.32;;;;;;;21.38;97.12;101174.44;2033984;28;20036;-71
2023/08/19 03:03:06;;;;;;;18.90;8.95;;;;;;;21.38;97.14;101174.44;2042545;28;20163;-71
2023/08/19 03:04:08;;;;;;;13.13;8.13;;;;;;;21.40;97.02;101172.16;2041897;28;20183;-70
2023/08/19 03:05:10;;;;;;;12.98;7.00;;;;;;;21.42;97.14;101175.34;2049998;28;20028;-71
2023/08/19 03:06:12;;;;;;;16.77;8.13;;;;;;;21.45;96.92;101174.69;2057202;28;20035;-71
2023/08/19 03:07:13;;;;;;;19.60;8.15;;;;;;;21.47;97.02;101172.41;2049302;28;20039;-71
2023/08/19 03:08:15;;;;;;;13.35;7.47;;;;;;;21.48;96.87;101171.28;2035439;28;20887;-70
2023/08/19 03:09:19;;;;;;;13.60;8.05;;;;;;;21.50;96.68;101174.47;2041461;29;20039;-70
2023/08/19 03:10:21;;;;;;;15.55;8.10;;;;;;;21.49;96.88;101175.59;2033693;28;20048;-71
2023/08/19 03:11:25;;;;;;;15.55;7.85;;;;;;;21.50;96.57;101181.88;2049550;28;20043;-71
2023/08/19 03:12:29;;;;;;;15.60;8.10;;;;;;;21.46;96.54;101170.78;2041408;29;20024;-71
2023/08/19 03:13:31;;;;;;;17.60;8.30;;;;;;;21.45;96.76;101174.69;2034427;28;20778;-71
2023/08/19 03:14:33;;;;;;;12.77;7.38;;;;;;;21.45;96.65;101176.63;2048893;28;20086;-70
2023/08/19 03:15:38;;;;;;;17.08;8.25;;;;;;;21.47;96.63;101177.88;2049667;28;20040;-72
2023/08/19 03:16:39;;;;;;;17.23;8.43;;;;;;;21.45;96.65;101177.41;2042007;28;20075;-72
2023/08/19 03:17:42;;;;;;;12.98;7.85;;;;;;;21.44;96.68;101173.09;2033719;29;20860;-71
2023/08/19 03:18:47;;;;;;;16.20;7.28;;;;;;;21.47;96.60;101169.69;2042707;28;20027;-71
2023/08/19 03:19:48;;;;;;;15.63;8.52;;;;;;;21.47;96.63;101171.63;2049425;28;20040;-72
2023/08/19 03:20:57;;;;;;;16.27;8.18;;;;;;;21.47;96.52;101172.41;2033254;29;20753;-72
2023/08/19 03:22:02;;;;;;;13.27;7.95;;;;;;;21.49;96.62;101170.13;2036670;28;21330;-72
2023/08/19 03:23:04;;;;;;;13.32;7.47;;;;;;;21.47;96.66;101166.94;2050968;28;20058;-72
2023/08/19 03:24:07;;;;;;;14.02;7.70;;;;;;;21.46;96.82;101161.78;2057383;28;20082;-73
2023/08/19 03:25:11;;;;;;;15.38;8.55;;;;;;;21.47;96.90;101169.69;2049722;28;20099;-72
2023/08/19 03:26:13;;;;;;;17.23;8.30;;;;;;;21.44;96.96;101164.09;2057920;28;20043;-72
2023/08/19 03:27:14;;;;;;;13.98;8.27;;;;;;;21.45;96.75;101168.41;2057176;28;20038;-71
2023/08/19 03:28:16;;;;;;;16.38;8.60;;;;;;;21.43;96.81;101160.53;2049289;28;20842;-71
2023/08/19 03:29:18;;;;;;;14.23;8.50;;;;;;;21.45;97.03;101161.00;2041361;28;20130;-72
2023/08/19 03:30:20;;;;;;;16.48;9.13;;;;;;;21.44;96.78;101150.41;2041749;28;20028;-72
2023/08/19 03:31:22;;;;;;;16.95;8.55;;;;;;;21.44;96.96;101158.63;2057355;28;20090;-72
2023/08/19 03:32:24;;;;;;;18.25;8.20;;;;;;;21.39;96.90;101148.66;2057432;28;20047;-72
2023/08/19 03:33:31;;;;;;;18.67;9.05;;;;;;;21.44;96.98;101156.69;2041301;28;20032;-72
2023/08/19 03:34:35;;;;;;;17.35;8.25;;;;;;;21.45;96.97;101158.25;2051027;28;20031;-72
2023/08/19 03:35:37;;;;;;;15.07;8.95;;;;;;;21.46;96.90;101153.59;2065326;28;20045;-72
2023/08/19 03:36:42;;;;;;;18.05;9.88;;;;;;;21.44;97.03;101148.47;2064833;28;20023;-72
2023/08/19 03:37:47;;;;;;;18.13;8.70;;;;;;;21.44;97.13;101151.19;2065110;28;20062;-71
2023/08/19 03:38:52;;;;;;;16.00;8.73;;;;;;;21.46;97.01;101153.59;2041248;28;20796;-71
2023/08/19 03:39:53;;;;;;;18.17;9.43;;;;;;;21.47;97.17;101150.53;2027099;28;20025;-72
2023/08/19 03:40:58;;;;;;;18.25;9.10;;;;;;;21.48;97.05;101152.13;2049408;28;20028;-72
2023/08/19 03:42:03;;;;;;;21.60;9.88;;;;;;;21.47;97.04;101150.53;2057313;28;20898;-72
2023/08/19 03:43:07;;;;;;;20.38;9.55;;;;;;;21.48;97.20;101143.91;2049866;28;20031;-72
2023/08/19 03:44:12;;;;;;;16.98;9.63;;;;;;;21.48;97.09;101149.38;2057492;28;20043;-72
2023/08/19 03:45:16;;;;;;;17.23;10.00;;;;;;;21.52;97.16;101144.03;2049263;28;20036;-72
2023/08/19 03:46:18;;;;;;;17.23;9.50;;;;;;;21.51;97.17;101151.44;2025886;29;20076;-72
2023/08/19 03:47:19;;;;;;;19.23;9.65;;;;;;;21.52;96.99;101161.25;2033308;28;20040;-72
2023/08/19 03:48:21;;;;;;;18.98;9.80;;;;;;;21.48;97.19;101145.84;2049412;28;20311;-72
2023/08/19 03:49:24;;;;;;;21.52;9.82;;;;;;;21.48;97.01;101146.66;2049383;28;20047;-72
2023/08/19 03:50:26;;;;;;;20.45;10.45;;;;;;;21.48;97.20;101152.13;2049295;28;20023;-72
2023/08/19 03:51:30;;;;;;;15.85;9.98;;;;;;;21.46;97.25;101154.38;2049408;28;20087;-72
2023/08/19 03:52:38;;;;;;;24.55;11.25;;;;;;;21.44;97.22;101155.88;2050189;28;20039;-72
2023/08/19 03:53:43;;;;;;;23.45;11.50;;;;;;;21.45;97.38;101155.53;2049338;28;20837;-71
2023/08/19 03:54:45;;;;;;;16.10;10.38;;;;;;;21.47;97.48;101156.00;2041199;28;21012;-72
2023/08/19 03:55:49;;;;;;;20.67;10.60;;;;;;;21.47;97.24;101153.25;2050002;28;20044;-72
2023/08/19 03:56:51;;;;;;;15.85;9.95;;;;;;;21.52;97.17;101149.50;2065329;28;20039;-71
2023/08/19 03:57:55;;;;;;;21.25;11.05;;;;;;;21.50;97.30;101149.03;2049139;28;20099;-72
2023/08/19 03:58:59;;;;;;;21.30;11.30;;;;;;;21.49;97.32;101153.72;2034711;28;20029;-72
2023/08/19 04:00:02;;;;;;;19.27;11.07;;;;;;;21.52;97.34;101158.50;2041906;28;20066;-71
2023/08/19 04:01:27;;;;;;;18.45;10.90;;;;;;;21.50;97.37;101155.31;2049767;28;20054;-70
2023/08/19 04:02:29;;;;;;;22.23;11.15;;;;;;;21.49;97.43;101159.19;2043166;28;20843;-70
2023/08/19 04:03:34;;;;;;;27.58;11.63;;;;;;;21.49;97.57;101150.97;2041544;28;20985;-71
2023/08/19 04:04:36;;;;;;;24.60;11.60;;;;;;;21.48;97.66;101152.13;2049834;28;20969;-71
2023/08/19 04:05:42;;;;;;;28.55;11.93;;;;;;;21.50;97.60;101159.97;2057004;28;20031;-72
2023/08/19 04:06:44;;;;;;;36.88;13.38;;;;;;;21.46;97.69;101151.66;2049794;28;20044;-72
2023/08/19 04:07:48;;;;;;;63.15;13.10;;;;;;;21.44;97.87;101162.16;2047244;28;20918;-73
2023/08/19 04:08:50;;;;;;;19.17;11.77;;;;;;;21.41;98.08;101151.09;2035373;28;20039;-72
2023/08/19 04:09:52;;;;;;;27.33;11.90;;;;;;;21.42;98.29;101147.19;2033454;28;20152;-73
2023/08/19 04:11:04;;;;;;;33.47;11.95;;;;;;;21.38;98.35;101147.06;2033737;29;20844;-72
2023/08/19 04:12:07;;;;;;;18.08;11.30;;;;;;;21.37;98.68;101148.19;2038907;28;20123;-72
2023/08/19 04:13:12;;;;;;;22.00;11.75;;;;;;;21.37;98.47;101148.19;2058282;28;20039;-72
2023/08/19 04:14:16;;;;;;;22.65;12.23;;;;;;;21.36;98.73;101149.34;2058716;28;20110;-72
2023/08/19 04:15:19;;;;;;;25.15;11.93;;;;;;;21.36;98.76;101154.81;2050561;28;20869;-72
2023/08/19 04:16:26;;;;;;;22.95;12.52;;;;;;;21.39;98.88;101156.88;2028156;29;20048;-72
2023/08/19 04:17:32;;;;;;;20.50;11.30;;;;;;;21.40;98.72;101153.00;2043446;28;20103;-72
2023/08/19 04:18:34;;;;;;;21.60;12.40;;;;;;;21.43;98.83;101146.06;2043093;28;20760;-72
2023/08/19 04:19:37;;;;;;;21.33;11.85;;;;;;;21.45;98.94;101143.78;2043139;28;20060;-72
2023/08/19 04:20:43;;;;;;;19.08;11.75;;;;;;;21.44;98.91;101140.25;2051070;28;20044;-72
2023/08/19 04:21:49;;;;;;;17.52;11.52;;;;;;;21.45;98.76;101141.84;2059364;28;20149;-72
2023/08/19 04:22:51;;;;;;;21.35;11.55;;;;;;;21.46;98.76;101131.69;2049878;28;20094;-72
2023/08/19 04:23:52;;;;;;;51.20;13.23;;;;;;;21.40;98.77;101133.84;2050672;28;20032;-72
2023/08/19 04:24:55;;;;;;;25.08;12.88;;;;;;;21.47;98.66;101141.53;2050464;28;20028;-72
2023/08/19 04:26:04;;;;;;;21.10;12.25;;;;;;;21.45;98.67;101139.13;2043180;28;20028;-72
2023/08/19 04:27:07;;;;;;;21.13;11.85;;;;;;;21.47;98.91;101141.53;2051476;28;20063;-72
2023/08/19 04:28:14;;;;;;;19.70;12.30;;;;;;;21.49;98.77;101140.03;2050845;28;20031;-72
2023/08/19 04:29:16;;;;;;;20.75;12.13;;;;;;;21.54;98.83;101149.19;2058513;28;20039;-72
2023/08/19 04:30:18;;;;;;;70.78;12.93;;;;;;;21.54;98.69;101140.97;2050392;28;20035;-72
2023/08/19 04:31:19;;;;;;;26.35;11.85;;;;;;;21.47;98.66;101139.59;2042569;28;20141;-72
2023/08/19 04:32:33;;;;;;;86.03;13.23;;;;;;;21.47;98.89;101139.59;2036831;28;20040;-72
2023/08/19 04:33:36;;;;;;;34.17;13.00;;;;;;;21.45;98.88;101146.53;2045138;28;20074;-72
2023/08/19 04:34:37;;;;;;;25.10;12.15;;;;;;;21.44;98.70;101145.72;2050612;28;20051;-72
2023/08/19 04:35:40;;;;;;;21.75;12.20;;;;;;;21.46;99.00;101146.19;2050359;28;20744;-72
2023/08/19 04:36:45;;;;;;;59.47;12.57;;;;;;;21.44;99.01;101148.47;2058593;28;20037;-72
2023/08/19 04:37:51;;;;;;;19.52;11.95;;;;;;;21.41;99.04;101146.41;2058216;28;20035;-72
2023/08/19 04:38:58;;;;;;;18.95;11.45;;;;;;;21.41;99.21;101148.34;2058415;28;20027;-72
2023/08/19 04:40:04;;;;;;;20.48;12.48;;;;;;;21.42;99.23;101150.72;2058392;28;20957;-72
2023/08/19 04:41:12;;;;;;;17.58;11.10;;;;;;;21.45;99.16;101158.25;2051575;28;20034;-71
2023/08/19 04:42:18;;;;;;;17.60;11.25;;;;;;;21.45;99.35;101152.00;2059217;28;20843;-72
2023/08/19 04:43:21;;;;;;;18.92;11.02;;;;;;;21.46;99.22;101151.66;2042338;28;20029;-71
2023/08/19 04:44:24;;;;;;;23.17;11.50;;;;;;;21.48;99.07;101156.78;2051150;28;20031;-72
2023/08/19 04:45:26;;;;;;;24.05;10.98;;;;;;;21.45;99.32;101155.53;2058225;28;20941;-71
2023/08/19 04:46:31;;;;;;;20.80;11.07;;;;;;;21.45;99.21;101150.06;2049984;28;20032;-71
2023/08/19 04:47:33;;;;;;;16.95;10.70;;;;;;;21.46;99.26;101154.38;2042969;28;20032;-71
2023/08/19 04:48:34;;;;;;;15.35;10.80;;;;;;;21.49;99.19;101155.66;2058331;28;20027;-71
2023/08/19 04:49:39;;;;;;;35.85;11.15;;;;;;;21.48;99.16;101157.59;2050076;28;20148;-71
2023/08/19 04:50:40;;;;;;;15.45;11.35;;;;;;;21.50;99.34;101155.31;2043055;28;20855;-71
2023/08/19 04:51:43;;;;;;;28.75;11.18;;;;;;;21.48;99.04;101160.31;2050447;28;20046;-71
2023/08/19 04:52:44;;;;;;;28.45;11.57;;;;;;;;;;2050708;28;20146;-71
2023/08/19 04:53:48;;;;;;;34.72;11.43;;;;;;;21.49;99.15;101156.44;2058370;28;20066;-73
2023/08/19 04:54:53;;;;;;;21.75;10.77;;;;;;;21.48;99.25;101163.06;2066125;28;20952;-71
2023/08/19 04:55:59;;;;;;;34.42;10.75;;;;;;;21.45;99.23;101161.00;2050127;28;20071;-72
2023/08/19 04:57:04;;;;;;;16.95;10.73;;;;;;;21.45;99.24;101160.22;2044315;28;20020;-72